Airport View

Enter AWOS ICAO identifier for current METAR.

ex. KFNL

KLRU 051255Z AUTO 30003KT 10SM CLR 22/09 A3010 RMK AO2 T02210090

5 Aug 2020 13:05

Frequency: 119.025

Phone: 575-526-4831

Other Area AWOS: K5T6 - KDNA - KBIF - KELP

TAF KLRU 051130Z 0512/0612 29007KT P6SM FEW250 FM052200 22005KT P6SM VCTS SCT100CB SCT250 FM060300 27009KT P6SM FEW120